Time;durP1;ratioP1;P1;durP2;ratioP2;P2;SDS_P1;SDS_P2;PMS_P1;PMS_P2;Temp;Humidity;BMP_temperature;BMP_pressure;BME280_temperature;BME280_humidity;BME280_pressure;Samples;Min_cycle;Max_cycle;Signal;HPM_P1;HPM_P2
2023/06/28 00:00:34;;;;;;;4.43;2.15;;;;;;;12.63;87.56;100939.63;7400634;19;20368;-65
2023/06/28 00:03:04;;;;;;;4.63;2.03;;;;;;;12.59;87.51;100938.84;7398903;19;20025;-65
2023/06/28 00:05:35;;;;;;;5.03;2.10;;;;;;;12.55;87.81;100935.44;7400134;19;20366;-65
2023/06/28 00:08:04;;;;;;;5.88;2.22;;;;;;;12.51;87.89;100941.69;7400127;19;20017;-65
2023/06/28 00:10:32;;;;;;;2.47;1.65;;;;;;;12.46;87.95;100937.44;7399865;19;20021;-65
2023/06/28 00:13:01;;;;;;;4.45;2.08;;;;;;;12.41;88.27;100940.22;7396337;19;20481;-65
2023/06/28 00:15:29;;;;;;;2.90;1.92;;;;;;;12.37;88.47;100938.53;7397392;19;20077;-65
2023/06/28 00:17:57;;;;;;;3.50;2.28;;;;;;;12.33;88.70;100937.78;7397694;19;20028;-64
2023/06/28 00:20:26;;;;;;;3.88;2.05;;;;;;;12.28;88.74;100939.63;7399539;19;20015;-65
2023/06/28 00:22:57;;;;;;;6.38;2.20;;;;;;;12.26;88.83;100930.06;7396930;19;20456;-65
2023/06/28 00:25:25;;;;;;;4.35;2.40;;;;;;;12.22;89.18;100938.03;7399485;19;20018;-65
2023/06/28 00:27:54;;;;;;;4.47;2.20;;;;;;;12.20;89.16;100941.63;7397349;19;20081;-65
2023/06/28 00:30:22;;;;;;;3.88;1.95;;;;;;;12.15;89.46;100933.81;7397293;19;20018;-65
2023/06/28 00:32:52;;;;;;;4.25;2.53;;;;;;;12.12;89.65;100938.31;7396775;19;20015;-65
2023/06/28 00:35:20;;;;;;;3.05;2.45;;;;;;;12.07;89.67;100941.06;7399490;19;20037;-65
2023/06/28 00:37:48;;;;;;;5.50;2.25;;;;;;;12.03;90.06;100944.66;7399038;19;20086;-65
2023/06/28 00:40:20;;;;;;;7.35;2.80;;;;;;;11.99;90.34;100950.91;7396561;19;20018;-65
2023/06/28 00:42:48;;;;;;;5.63;2.50;;;;;;;11.96;90.21;100950.97;7398617;19;20014;-65
2023/06/28 00:45:16;;;;;;;4.32;2.25;;;;;;;11.94;90.53;100958.00;7396549;19;20363;-65
2023/06/28 00:47:46;;;;;;;6.65;2.60;;;;;;;11.90;90.75;100958.09;7396980;19;20018;-65
2023/06/28 00:50:14;;;;;;;3.00;2.53;;;;;;;11.87;90.78;100966.03;7396558;19;20676;-65
2023/06/28 00:52:43;;;;;;;4.00;2.75;;;;;;;11.86;90.61;100972.19;7398377;19;20088;-65
2023/06/28 00:55:12;;;;;;;5.00;2.55;;;;;;;11.85;90.75;100961.72;7398843;19;20018;-65
2023/06/28 00:57:43;;;;;;;5.82;2.25;;;;;;;11.83;90.89;100969.63;7396677;19;20014;-65
2023/06/28 01:00:14;;;;;;;5.43;2.70;;;;;;;11.82;91.08;100965.28;7399167;19;20020;-65
2023/06/28 01:02:44;;;;;;;4.43;2.67;;;;;;;11.80;90.90;100968.84;7398212;19;20023;-65
2023/06/28 01:05:14;;;;;;;4.90;3.10;;;;;;;11.76;91.11;100970.66;7398272;19;20353;-65
2023/06/28 01:07:43;;;;;;;4.25;2.97;;;;;;;11.75;91.09;100974.19;7398105;19;20015;-65
2023/06/28 01:10:12;;;;;;;5.72;2.72;;;;;;;11.73;91.28;100970.75;7396378;19;20014;-65
2023/06/28 01:12:44;;;;;;;5.63;3.22;;;;;;;11.71;91.49;100973.44;7397817;19;20037;-65
2023/06/28 01:15:13;;;;;;;5.10;2.70;;;;;;;11.69;91.69;100983.09;7399584;19;20022;-65
2023/06/28 01:17:41;;;;;;;5.75;3.20;;;;;;;11.68;91.79;100980.50;7398212;19;20023;-65
2023/06/28 01:20:11;;;;;;;7.95;3.67;;;;;;;11.67;92.37;100984.03;7398027;19;20029;-65
2023/06/28 01:22:43;;;;;;;5.25;3.10;;;;;;;11.66;92.49;100987.56;7395804;19;20074;-65
2023/06/28 01:25:14;;;;;;;7.93;3.75;;;;;;;11.65;92.89;100985.81;7396500;19;20078;-65
2023/06/28 01:27:44;;;;;;;6.15;2.78;;;;;;;11.63;92.48;100988.50;7398130;19;20021;-65
2023/06/28 01:30:15;;;;;;;6.47;3.47;;;;;;;11.64;92.82;100991.97;7397302;19;20014;-65
2023/06/28 01:32:44;;;;;;;3.67;3.35;;;;;;;11.63;93.19;100988.50;7395753;19;20011;-65
2023/06/28 01:35:14;;;;;;;7.68;4.15;;;;;;;11.64;93.26;100995.47;7397181;19;20397;-65
2023/06/28 01:37:43;;;;;;;6.45;3.45;;;;;;;11.65;93.17;100996.34;7397503;19;20033;-65
2023/06/28 01:40:16;;;;;;;6.53;3.40;;;;;;;11.66;93.23;100998.06;7397157;19;20018;-65
2023/06/28 01:42:45;;;;;;;8.38;3.33;;;;;;;11.67;93.84;100994.53;7395685;19;20023;-65
2023/06/28 01:45:13;;;;;;;6.13;3.25;;;;;;;11.68;93.94;100988.41;7396756;19;20400;-65
2023/06/28 01:47:42;;;;;;;7.97;3.80;;;;;;;11.69;94.02;100995.34;7396653;19;20493;-65
2023/06/28 01:50:12;;;;;;;6.70;3.42;;;;;;;11.70;94.02;100994.47;7396546;19;20485;-65
2023/06/28 01:52:40;;;;;;;8.00;3.22;;;;;;;11.70;94.04;100990.09;7396350;19;20557;-65
2023/06/28 01:55:10;;;;;;;11.38;3.95;;;;;;;11.71;93.74;100994.44;7396840;19;20021;-65
2023/06/28 01:57:42;;;;;;;11.65;4.60;;;;;;;11.72;93.97;100993.53;7395520;19;20015;-65
2023/06/28 02:00:11;;;;;;;9.57;5.00;;;;;;;11.73;94.02;100986.53;7395382;19;20026;-65
2023/06/28 02:02:39;;;;;;;10.15;4.18;;;;;;;11.74;93.83;100989.13;7395679;19;20011;-65
2023/06/28 02:05:08;;;;;;;5.85;3.50;;;;;;;11.76;94.18;100983.81;7396449;19;20078;-65
2023/06/28 02:07:36;;;;;;;8.32;3.97;;;;;;;11.76;94.09;100989.06;7396385;19;20035;-65
2023/06/28 02:10:06;;;;;;;6.50;3.80;;;;;;;11.77;94.16;100989.97;7397435;19;20026;-67
2023/06/28 02:12:34;;;;;;;7.28;4.13;;;;;;;11.78;94.11;100992.53;7396836;19;20078;-66
2023/06/28 02:15:06;;;;;;;7.93;3.88;;;;;;;11.77;94.01;100984.69;7395991;19;20086;-66
2023/06/28 02:17:35;;;;;;;7.90;4.20;;;;;;;11.77;94.03;100988.19;7396742;19;20023;-65
2023/06/28 02:20:04;;;;;;;9.80;4.18;;;;;;;11.76;94.20;100991.69;7395605;19;20351;-65
2023/06/28 02:22:32;;;;;;;11.23;4.10;;;;;;;11.75;94.30;100987.34;7395732;19;20015;-65
2023/06/28 02:25:01;;;;;;;6.72;3.97;;;;;;;11.74;93.93;100990.88;7394180;19;20015;-65
2023/06/28 02:27:29;;;;;;;11.32;5.07;;;;;;;11.74;94.02;100996.16;7394166;19;20021;-65
2023/06/28 02:29:58;;;;;;;6.50;3.80;;;;;;;11.72;94.29;100990.91;7395692;19;20086;-65
2023/06/28 02:32:30;;;;;;;8.00;4.50;;;;;;;11.72;94.26;100990.03;7395635;19;20400;-65
2023/06/28 02:34:59;;;;;;;7.43;3.83;;;;;;;11.70;94.36;100989.22;7393234;19;20015;-65
2023/06/28 02:37:27;;;;;;;6.22;4.35;;;;;;;11.69;94.77;100992.72;7395287;19;20030;-65
2023/06/28 02:39:55;;;;;;;8.15;4.05;;;;;;;11.66;94.50;100977.91;7395208;19;20025;-65
2023/06/28 02:42:31;;;;;;;10.80;4.15;;;;;;;11.63;94.68;100985.84;7392772;19;20362;-65
2023/06/28 02:45:06;;;;;;;9.20;5.10;;;;;;;11.63;94.99;100982.38;7394072;19;20100;-65
2023/06/28 02:47:37;;;;;;;7.57;4.50;;;;;;;11.62;94.78;100978.03;7395002;19;20086;-65
2023/06/28 02:50:07;;;;;;;8.48;4.20;;;;;;;11.60;95.08;100980.69;7395646;19;20037;-65
2023/06/28 02:52:35;;;;;;;8.45;4.20;;;;;;;11.60;95.28;100982.44;7393116;19;20022;-65
2023/06/28 02:55:06;;;;;;;8.05;4.13;;;;;;;11.58;95.31;100979.84;7393242;19;20078;-65
2023/06/28 02:57:34;;;;;;;13.15;4.43;;;;;;;11.57;95.46;100983.38;7395481;19;20011;-66
2023/06/28 03:00:05;;;;;;;9.45;4.57;;;;;;;11.56;95.45;100990.41;7394874;19;20029;-66
2023/06/28 03:02:36;;;;;;;7.70;4.13;;;;;;;11.57;95.35;100988.63;7393276;19;20041;-66
2023/06/28 03:05:05;;;;;;;7.65;3.95;;;;;;;11.57;95.54;100994.75;7394743;19;20021;-66
2023/06/28 03:07:33;;;;;;;8.57;4.20;;;;;;;11.57;95.57;100992.13;7394666;19;20081;-66
2023/06/28 03:10:02;;;;;;;9.75;4.22;;;;;;;11.58;95.29;100992.97;7394574;19;20024;-66
2023/06/28 03:12:30;;;;;;;11.85;4.45;;;;;;;11.58;95.59;100993.84;7394447;19;20026;-66
2023/06/28 03:14:59;;;;;;;11.68;5.05;;;;;;;11.60;95.80;100999.09;7392060;19;20019;-65
2023/06/28 03:17:27;;;;;;;15.05;4.53;;;;;;;11.60;95.75;100995.56;7391986;19;20373;-66
2023/06/28 03:19:58;;;;;;;6.90;4.28;;;;;;;11.61;95.45;100995.53;7392380;19;20039;-66
2023/06/28 03:22:27;;;;;;;9.98;4.30;;;;;;;11.61;95.74;100995.53;7395107;19;20018;-66
2023/06/28 03:24:55;;;;;;;6.70;3.80;;;;;;;11.62;95.79;100996.41;7392226;19;20019;-65
2023/06/28 03:27:24;;;;;;;9.18;4.68;;;;;;;11.63;96.00;100990.25;7394168;19;20090;-65
2023/06/28 03:29:52;;;;;;;8.23;4.00;;;;;;;11.64;95.59;100989.34;7394010;19;20019;-64
2023/06/28 03:32:21;;;;;;;11.57;4.05;;;;;;;11.65;95.88;100986.69;7393839;19;20021;-64
2023/06/28 03:34:49;;;;;;;10.48;4.63;;;;;;;11.66;95.69;101003.31;7391663;19;20019;-64
2023/06/28 03:37:20;;;;;;;10.13;4.35;;;;;;;11.67;95.73;100997.19;7393671;19;20014;-64
2023/06/28 03:39:49;;;;;;;12.80;4.60;;;;;;;11.68;95.74;100998.91;7393972;19;20021;-66
2023/06/28 03:42:17;;;;;;;7.75;4.25;;;;;;;11.69;95.75;100993.63;7390752;19;20007;-65
2023/06/28 03:44:45;;;;;;;9.82;4.82;;;;;;;11.71;95.67;100997.09;7391001;19;20351;-65
2023/06/28 03:47:14;;;;;;;10.68;3.90;;;;;;;11.73;95.53;101005.78;7394351;19;20019;-65
2023/06/28 03:49:43;;;;;;;12.05;4.35;;;;;;;11.76;95.56;100996.97;7400694;19;20014;-65
2023/06/28 03:52:12;;;;;;;12.55;4.00;;;;;;;11.77;95.77;101001.31;7400983;19;20034;-66
2023/06/28 03:54:43;;;;;;;10.73;4.20;;;;;;;11.80;95.42;101003.00;7397775;19;20019;-66
2023/06/28 03:57:11;;;;;;;7.55;4.68;;;;;;;11.82;95.71;101004.72;7401281;19;20074;-66
2023/06/28 03:59:40;;;;;;;14.98;5.20;;;;;;;11.84;95.75;101005.56;7397437;19;20426;-66
2023/06/28 04:02:08;;;;;;;6.15;4.00;;;;;;;11.86;95.73;101000.25;7397765;19;20077;-66
2023/06/28 04:04:37;;;;;;;10.10;4.10;;;;;;;11.88;95.90;101020.34;7397697;19;20078;-65
2023/06/28 04:07:05;;;;;;;9.07;3.90;;;;;;;11.90;95.78;101026.44;7399788;19;20015;-66
2023/06/28 04:09:34;;;;;;;8.30;4.18;;;;;;;11.93;95.70;101016.75;7399904;19;20011;-66
2023/06/28 04:12:06;;;;;;;8.02;4.10;;;;;;;11.97;95.50;101018.44;7400020;19;20011;-65
2023/06/28 04:14:35;;;;;;;11.38;4.20;;;;;;;12.01;95.29;101028.00;7397297;19;20436;-65
2023/06/28 04:17:03;;;;;;;13.50;5.20;;;;;;;12.03;95.38;101021.78;7399730;19;20018;-63
2023/06/28 04:19:31;;;;;;;8.95;4.40;;;;;;;12.09;95.08;101017.28;7397035;19;20022;-65
2023/06/28 04:22:00;;;;;;;9.20;4.40;;;;;;;12.11;95.23;101024.25;7399496;19;20023;-65
2023/06/28 04:24:28;;;;;;;8.13;4.38;;;;;;;12.15;95.18;101028.50;7397578;19;20070;-65
2023/06/28 04:27:00;;;;;;;11.07;4.88;;;;;;;12.19;95.32;101034.56;7399387;19;20074;-65
2023/06/28 04:29:31;;;;;;;12.18;3.92;;;;;;;12.20;95.03;101034.53;7397403;19;20018;-63
2023/06/28 04:32:02;;;;;;;12.50;4.22;;;;;;;12.24;95.25;101024.81;7398856;19;20489;-65
2023/06/28 04:34:31;;;;;;;8.82;4.00;;;;;;;12.29;95.04;101035.22;7397516;19;20018;-64
2023/06/28 04:37:00;;;;;;;8.27;4.50;;;;;;;12.32;95.02;101029.88;7399358;19;20015;-64
2023/06/28 04:39:28;;;;;;;10.55;4.85;;;;;;;12.34;94.86;101028.94;7398283;19;20082;-64
2023/06/28 04:41:57;;;;;;;12.50;4.35;;;;;;;12.37;94.76;101030.63;7397341;19;20011;-66
2023/06/28 04:44:25;;;;;;;9.77;4.63;;;;;;;12.42;94.86;101031.38;7396254;19;20487;-65
2023/06/28 04:46:57;;;;;;;8.80;4.30;;;;;;;12.47;94.56;101033.91;7396274;19;20078;-65
2023/06/28 04:49:25;;;;;;;9.20;4.00;;;;;;;12.51;94.48;101030.28;7399149;19;20398;-65
2023/06/28 04:51:54;;;;;;;10.55;4.07;;;;;;;12.57;94.32;101039.81;7396536;19;20050;-65
2023/06/28 04:54:22;;;;;;;9.82;4.13;;;;;;;12.61;94.00;101033.53;7395848;19;20082;-66
2023/06/28 04:56:50;;;;;;;8.70;4.72;;;;;;;12.65;93.86;101038.72;7398711;19;20385;-65
2023/06/28 04:59:19;;;;;;;10.75;3.85;;;;;;;12.71;93.58;101050.84;7395602;19;20074;-65
2023/06/28 05:01:47;;;;;;;12.57;3.90;;;;;;;12.75;93.61;101044.59;7398651;19;20015;-67
2023/06/28 05:04:18;;;;;;;11.13;3.55;;;;;;;12.80;93.15;101041.84;7395702;19;20077;-65
2023/06/28 05:06:47;;;;;;;10.25;3.33;;;;;;;12.87;92.98;101039.00;7398383;19;20021;-65
2023/06/28 05:09:15;;;;;;;10.55;3.53;;;;;;;12.93;92.80;101031.84;7396757;19;20070;-65
2023/06/28 05:11:44;;;;;;;12.23;3.78;;;;;;;12.97;92.56;101034.34;7396193;19;20074;-65
2023/06/28 05:14:12;;;;;;;10.98;4.15;;;;;;;13.02;92.34;101034.22;7395266;19;20537;-65
2023/06/28 05:16:40;;;;;;;11.15;3.78;;;;;;;13.08;92.05;101020.91;7396919;19;20485;-65
2023/06/28 05:19:09;;;;;;;13.82;3.92;;;;;;;13.13;91.98;101040.06;7397309;19;20037;-65
2023/06/28 05:21:40;;;;;;;10.80;3.35;;;;;;;13.18;91.46;101029.38;7397711;19;20024;-66
2023/06/28 05:24:09;;;;;;;12.60;3.17;;;;;;;13.23;91.28;101037.16;7395983;19;20070;-64
2023/06/28 05:26:37;;;;;;;10.88;3.90;;;;;;;13.26;90.93;101032.69;7396291;19;20070;-66
2023/06/28 05:29:06;;;;;;;13.23;3.97;;;;;;;13.31;90.72;101025.50;7394561;19;20014;-65
2023/06/28 05:31:34;;;;;;;8.45;2.90;;;;;;;13.36;90.45;101041.19;7397436;19;20081;-65
2023/06/28 05:34:02;;;;;;;9.90;2.92;;;;;;;13.40;90.64;101034.97;7395919;19;20032;-65
2023/06/28 05:36:31;;;;;;;8.88;3.03;;;;;;;13.43;90.36;101039.28;7397352;19;20020;-65
2023/06/28 05:39:02;;;;;;;7.22;2.88;;;;;;;13.46;90.05;101041.84;7396690;19;20078;-66
2023/06/28 05:41:30;;;;;;;5.70;2.72;;;;;;;13.51;90.08;101040.78;7394611;19;20015;-66
2023/06/28 05:43:59;;;;;;;8.55;2.88;;;;;;;13.55;89.87;101049.47;7395691;19;20014;-64
2023/06/28 05:46:27;;;;;;;8.05;3.72;;;;;;;13.59;89.69;101031.78;7396498;19;20026;-65
2023/06/28 05:48:58;;;;;;;11.75;2.85;;;;;;;13.63;89.67;101036.91;7396331;19;20367;-65
2023/06/28 05:51:26;;;;;;;7.55;3.10;;;;;;;13.69;89.83;101035.88;7396790;19;20010;-64
2023/06/28 05:53:55;;;;;;;11.82;3.22;;;;;;;13.74;88.45;101039.22;7395237;19;20020;-65
2023/06/28 05:56:27;;;;;;;9.10;2.70;;;;;;;13.80;88.72;101028.50;7396612;19;20023;-65
2023/06/28 05:58:56;;;;;;;7.85;3.10;;;;;;;13.90;89.10;101028.22;7396692;19;20015;-65
2023/06/28 06:01:25;;;;;;;8.38;3.28;;;;;;;13.95;88.07;101032.44;7396435;19;20022;-65
2023/06/28 06:03:53;;;;;;;6.72;2.40;;;;;;;14.00;87.50;101025.25;7395242;19;20116;-65
2023/06/28 06:06:22;;;;;;;7.28;2.45;;;;;;;14.06;86.64;101032.09;7395616;19;20015;-66
2023/06/28 06:08:50;;;;;;;8.50;2.55;;;;;;;14.12;85.71;101026.63;7394650;19;20441;-66
2023/06/28 06:11:19;;;;;;;5.20;2.60;;;;;;;14.19;85.66;101022.00;7395399;19;20085;-66
2023/06/28 06:13:50;;;;;;;6.22;1.95;;;;;;;14.26;85.64;101030.59;7393960;19;20772;-66
2023/06/28 06:16:18;;;;;;;8.95;3.05;;;;;;;14.31;84.69;101036.59;7396493;19;20041;-67
2023/06/28 06:18:47;;;;;;;12.13;2.47;;;;;;;14.36;83.98;101034.66;7396197;19;20018;-66
2023/06/28 06:21:15;;;;;;;9.35;2.53;;;;;;;14.42;83.97;101030.94;7393721;19;20082;-66
2023/06/28 06:23:44;;;;;;;12.45;2.83;;;;;;;14.47;83.24;101031.69;7393541;19;20518;-66
2023/06/28 06:26:12;;;;;;;8.13;2.63;;;;;;;14.53;83.04;101025.31;7395629;19;20014;-66
2023/06/28 06:28:40;;;;;;;10.85;2.70;;;;;;;14.59;82.53;101031.25;7395622;19;20015;-65
2023/06/28 06:31:14;;;;;;;6.82;2.10;;;;;;;14.67;81.47;101017.81;7395156;19;20074;-66
2023/06/28 06:33:42;;;;;;;6.25;1.98;;;;;;;14.75;81.46;101039.53;7394163;19;20048;-66
2023/06/28 06:36:10;;;;;;;6.90;2.13;;;;;;;14.83;81.91;101045.41;7393854;19;20074;-67
2023/06/28 06:38:39;;;;;;;9.68;2.78;;;;;;;14.87;79.66;101059.38;7395159;19;20018;-68
2023/06/28 06:41:07;;;;;;;8.05;2.13;;;;;;;14.94;81.00;101049.47;7394406;19;20388;-67
2023/06/28 06:43:36;;;;;;;11.35;2.55;;;;;;;14.97;77.17;101046.72;7392374;19;20014;-68
2023/06/28 06:46:04;;;;;;;5.85;2.38;;;;;;;15.04;79.43;101042.94;7393777;19;20018;-66
2023/06/28 06:48:36;;;;;;;7.60;2.00;;;;;;;15.11;79.00;101056.78;7394972;19;20019;-67
2023/06/28 06:51:07;;;;;;;7.25;2.15;;;;;;;15.17;79.41;101053.09;7393407;19;20041;-67
2023/06/28 06:53:35;;;;;;;5.53;1.90;;;;;;;15.22;77.00;101067.84;7393766;19;20018;-67
2023/06/28 06:56:04;;;;;;;5.97;1.95;;;;;;;15.30;78.75;101059.63;7393207;19;20059;-67
2023/06/28 06:58:33;;;;;;;6.75;2.08;;;;;;;15.37;76.54;101063.78;7392297;19;20363;-65
2023/06/28 07:01:01;;;;;;;7.60;2.20;;;;;;;15.43;76.98;101055.63;7392401;19;20007;-65
2023/06/28 07:03:30;;;;;;;5.90;1.90;;;;;;;15.50;75.66;101063.34;7392695;19;20018;-65
2023/06/28 07:06:02;;;;;;;8.05;2.33;;;;;;;15.59;75.50;101055.91;7392847;19;20078;-66
2023/06/28 07:08:31;;;;;;;4.30;2.53;;;;;;;15.68;75.59;101075.00;7394829;19;20018;-67
2023/06/28 07:10:59;;;;;;;5.45;1.67;;;;;;;15.74;72.82;101066.84;7395068;19;20019;-66
2023/06/28 07:13:27;;;;;;;4.53;1.63;;;;;;;15.83;73.47;101057.72;7392155;19;20025;-66
2023/06/28 07:15:56;;;;;;;5.43;1.95;;;;;;;15.90;73.92;101065.34;7391663;19;20347;-64
2023/06/28 07:18:24;;;;;;;6.15;2.00;;;;;;;15.98;73.26;101065.03;7391388;19;20491;-68
2023/06/28 07:20:53;;;;;;;5.53;1.98;;;;;;;16.07;73.24;101075.25;7393623;19;20078;-66
2023/06/28 07:23:24;;;;;;;6.45;2.38;;;;;;;16.13;72.30;101067.06;7398397;19;20037;-67
2023/06/28 07:25:53;;;;;;;5.10;1.83;;;;;;;16.19;73.16;101054.50;7401229;19;20099;-66
2023/06/28 07:28:21;;;;;;;7.78;1.90;;;;;;;16.23;72.09;101070.22;7401010;19;20018;-66
2023/06/28 07:30:55;;;;;;;5.03;1.65;;;;;;;16.25;70.93;101062.22;7401821;19;20086;-67
2023/06/28 07:33:24;;;;;;;;;;;;;;;16.29;69.80;101056.75;7400328;19;20491;-68
2023/06/28 07:35:53;;;;;;;5.72;1.67;;;;;;;16.35;70.27;101066.25;7397967;19;19944;-67
2023/06/28 07:38:24;;;;;;;4.72;1.98;;;;;;;16.41;71.75;101065.97;7400460;19;20014;-66
2023/06/28 07:40:53;;;;;;;11.00;2.20;;;;;;;16.48;71.89;101063.06;7401437;19;20023;-66
2023/06/28 07:43:22;;;;;;;8.18;1.67;;;;;;;16.50;70.72;101054.13;7398417;19;20014;-65
2023/06/28 07:45:51;;;;;;;5.13;1.83;;;;;;;16.51;69.27;101060.31;7400469;19;20019;-66
2023/06/28 07:48:20;;;;;;;6.63;1.65;;;;;;;16.55;69.35;101075.97;7399555;19;20037;-66
2023/06/28 07:50:49;;;;;;;5.60;1.73;;;;;;;16.65;68.42;101063.22;7397037;19;20017;-67
2023/06/28 07:53:17;;;;;;;6.38;3.78;;;;;;;16.76;69.56;101060.97;7397613;19;20044;-66
2023/06/28 07:55:49;;;;;;;3.22;1.23;;;;;;;16.86;67.48;101076.50;7398784;19;20011;-67
2023/06/28 07:58:17;;;;;;;5.00;2.13;;;;;;;16.96;69.02;101074.31;7397867;19;20019;-65
2023/06/28 08:00:46;;;;;;;6.38;1.52;;;;;;;16.99;68.76;101069.75;7399935;19;20024;-67
2023/06/28 08:03:14;;;;;;;6.32;1.98;;;;;;;17.04;68.85;101062.47;7399071;19;20485;-65
2023/06/28 08:05:43;;;;;;;3.00;1.58;;;;;;;17.10;68.13;101069.31;7399773;19;20548;-66
2023/06/28 08:08:12;;;;;;;6.38;1.42;;;;;;;17.15;66.87;101077.03;7397023;19;20086;-67
2023/06/28 08:10:40;;;;;;;5.47;1.45;;;;;;;17.16;66.86;101068.16;7399632;19;20082;-66
2023/06/28 08:13:11;;;;;;;7.13;1.30;;;;;;;17.15;63.57;101056.72;7396814;19;20018;-66
2023/06/28 08:15:40;;;;;;;6.22;1.63;;;;;;;17.14;63.78;101080.63;7397375;19;20029;-67
2023/06/28 08:18:09;;;;;;;4.40;1.50;;;;;;;17.14;65.31;101059.44;7399618;19;20143;-66
2023/06/28 08:20:38;;;;;;;3.38;1.65;;;;;;;17.18;64.32;101071.63;7399454;19;20485;-66
2023/06/28 08:23:06;;;;;;;6.32;1.70;;;;;;;17.24;63.39;101066.88;7399081;19;20022;-67
2023/06/28 08:25:35;;;;;;;4.28;1.38;;;;;;;17.34;62.79;101074.44;7399727;19;20090;-67
2023/06/28 08:28:03;;;;;;;4.50;1.52;;;;;;;17.41;62.51;101067.91;7399486;19;20010;-66
2023/06/28 08:30:34;;;;;;;6.20;1.20;;;;;;;17.50;62.58;101064.00;7399574;19;20018;-66
2023/06/28 08:33:09;;;;;;;4.15;1.50;;;;;;;17.59;59.39;101060.91;7395443;19;20554;-66
2023/06/28 08:35:38;;;;;;;4.05;1.27;;;;;;;17.69;62.37;101056.91;7398741;19;20082;-66
2023/06/28 08:38:06;;;;;;;5.38;1.77;;;;;;;17.78;62.35;101057.41;7399407;19;20039;-66
2023/06/28 08:40:42;;;;;;;5.32;1.52;;;;;;;17.82;61.57;101061.63;7398517;19;20014;-66
2023/06/28 08:43:14;;;;;;;4.15;1.50;;;;;;;17.87;61.70;101068.47;7397044;19;20161;-67
2023/06/28 08:45:46;;;;;;;2.75;1.42;;;;;;;17.92;60.87;101062.94;7398668;19;20050;-66
2023/06/28 08:48:15;;;;;;;4.10;1.02;;;;;;;17.96;59.82;101063.66;7399354;19;20037;-66
2023/06/28 08:50:44;;;;;;;6.28;1.30;;;;;;;18.01;59.60;101059.88;7398322;19;20515;-65
2023/06/28 08:53:16;;;;;;;4.05;1.63;;;;;;;18.06;58.66;101060.50;7397798;19;20018;-65
2023/06/28 08:55:45;;;;;;;6.20;1.40;;;;;;;18.13;57.68;101060.22;7397914;19;20015;-66
2023/06/28 08:58:14;;;;;;;4.88;1.42;;;;;;;18.14;55.92;101073.41;7399141;19;20436;-66
2023/06/28 09:00:45;;;;;;;4.47;1.17;;;;;;;18.15;56.93;101059.19;7396123;19;20077;-66
2023/06/28 09:03:16;;;;;;;5.40;1.27;;;;;;;18.16;56.34;101047.66;7397100;19;20083;-66
2023/06/28 09:05:45;;;;;;;3.65;1.02;;;;;;;18.24;56.76;101058.75;7396602;19;20040;-66
2023/06/28 09:08:14;;;;;;;4.18;1.58;;;;;;;18.32;55.30;101066.31;7397718;19;20017;-65
2023/06/28 09:10:44;;;;;;;4.03;1.15;;;;;;;18.31;55.82;101055.78;7397667;19;20086;-67
2023/06/28 09:13:19;;;;;;;3.42;1.27;;;;;;;18.27;56.27;101062.19;7396603;19;20025;-66
2023/06/28 09:15:50;;;;;;;4.03;2.17;;;;;;;18.27;56.66;101060.38;7396368;19;20018;-66
2023/06/28 09:18:19;;;;;;;4.50;1.50;;;;;;;18.36;57.73;101048.44;7397228;19;20489;-67
2023/06/28 09:20:51;;;;;;;2.40;1.00;;;;;;;18.46;56.10;101062.13;7397160;19;20015;-66
2023/06/28 09:23:24;;;;;;;4.50;1.65;;;;;;;18.52;54.39;101061.84;7396510;19;20019;-66
2023/06/28 09:25:53;;;;;;;4.07;1.10;;;;;;;18.60;55.50;101064.09;7397838;19;20066;-65
2023/06/28 09:28:25;;;;;;;5.95;1.42;;;;;;;18.65;54.01;101067.38;7397193;19;20018;-66
2023/06/28 09:30:59;;;;;;;4.22;1.23;;;;;;;18.67;53.77;101060.22;7396045;19;20069;-66
2023/06/28 09:33:28;;;;;;;2.17;1.05;;;;;;;18.68;55.14;101049.50;7394275;19;20545;-66
2023/06/28 09:35:58;;;;;;;4.10;1.10;;;;;;;18.73;55.71;101041.28;7395318;19;20503;-66
2023/06/28 09:38:27;;;;;;;5.72;1.13;;;;;;;18.84;55.43;101049.56;7396860;19;20041;-66
2023/06/28 09:40:56;;;;;;;6.85;1.27;;;;;;;18.96;55.46;101045.44;7399234;19;20147;-67
2023/06/28 09:43:25;;;;;;;3.70;1.20;;;;;;;19.05;52.34;101055.59;7395005;19;20381;-67
2023/06/28 09:45:56;;;;;;;5.93;1.65;;;;;;;19.11;52.98;101053.53;7393303;19;20022;-65
2023/06/28 09:48:27;;;;;;;7.35;1.67;;;;;;;19.17;52.39;101039.91;7396115;19;20014;-66
2023/06/28 09:50:56;;;;;;;4.38;1.25;;;;;;;19.25;53.75;101035.06;7395226;19;20036;-66
2023/06/28 09:53:26;;;;;;;4.53;1.75;;;;;;;19.29;53.88;101043.75;7395984;19;20018;-66
2023/06/28 09:55:54;;;;;;;3.08;1.30;;;;;;;19.28;53.95;101045.53;7395864;19;20086;-66
2023/06/28 09:58:23;;;;;;;4.95;1.60;;;;;;;19.34;54.09;101047.88;7396275;19;20021;-66
2023/06/28 10:00:52;;;;;;;4.20;1.50;;;;;;;19.41;53.77;101045.75;7396654;19;20018;-66
2023/06/28 10:03:27;;;;;;;3.70;1.13;;;;;;;19.40;52.65;101049.34;7394545;19;20099;-67
2023/06/28 10:05:59;;;;;;;5.32;2.00;;;;;;;19.40;51.29;101053.78;7396575;19;20036;-67
2023/06/28 10:08:28;;;;;;;4.15;1.63;;;;;;;19.42;53.18;101047.44;7396319;19;20011;-66
2023/06/28 10:10:57;;;;;;;5.68;1.50;;;;;;;19.47;53.07;101049.88;7396220;19;20090;-66
2023/06/28 10:13:29;;;;;;;2.78;1.08;;;;;;;19.53;51.13;101046.88;7395309;19;20044;-65
2023/06/28 10:16:04;;;;;;;5.13;1.40;;;;;;;19.60;51.18;101042.94;7395575;19;20014;-69
2023/06/28 10:18:34;;;;;;;5.43;1.63;;;;;;;19.69;51.97;101036.25;7393579;19;20524;-66
2023/06/28 10:21:07;;;;;;;2.80;1.40;;;;;;;19.82;51.55;101044.41;7395444;19;20498;-66
2023/06/28 10:23:36;;;;;;;3.28;1.10;;;;;;;19.90;51.88;101041.34;7395056;19;20023;-66
2023/06/28 10:26:05;;;;;;;2.42;1.35;;;;;;;19.98;51.71;101047.97;7395064;19;20037;-66
2023/06/28 10:28:35;;;;;;;5.90;1.25;;;;;;;20.02;49.74;101043.31;7394719;19;20035;-66
2023/06/28 10:31:05;;;;;;;5.35;1.50;;;;;;;20.01;50.25;101042.44;7395294;19;20015;-66
2023/06/28 10:33:36;;;;;;;4.53;1.58;;;;;;;20.01;50.26;101047.78;7394773;19;20082;-66
2023/06/28 10:36:07;;;;;;;4.57;1.45;;;;;;;19.98;49.34;101050.63;7393767;19;20484;-65
2023/06/28 10:38:37;;;;;;;3.78;1.67;;;;;;;20.01;49.32;101041.59;7393314;19;20018;-65
2023/06/28 10:41:06;;;;;;;4.93;1.95;;;;;;;20.10;50.84;101038.41;7395305;19;20038;-66
2023/06/28 10:43:35;;;;;;;2.17;1.20;;;;;;;20.13;49.87;101030.25;7392778;19;20524;-66
2023/06/28 10:46:04;;;;;;;4.68;1.25;;;;;;;20.13;49.92;101040.03;7394249;19;20381;-67
2023/06/28 10:48:32;;;;;;;2.90;1.48;;;;;;;20.13;49.51;101043.56;7394494;19;20082;-66
2023/06/28 10:51:05;;;;;;;2.45;1.08;;;;;;;20.16;50.06;101038.06;7394714;19;20088;-66
2023/06/28 10:53:36;;;;;;;4.05;1.20;;;;;;;20.20;48.74;101043.22;7394016;19;20018;-67
2023/06/28 10:56:12;;;;;;;3.75;1.35;;;;;;;20.29;48.18;101048.00;7395300;19;20014;-66
2023/06/28 10:58:42;;;;;;;3.95;1.35;;;;;;;20.35;48.62;101043.16;7402497;19;20014;-66
2023/06/28 11:01:11;;;;;;;6.00;1.25;;;;;;;20.37;48.19;101051.06;7401982;19;20018;-66
2023/06/28 11:03:41;;;;;;;4.18;1.45;;;;;;;20.40;48.77;101047.41;7400578;19;20086;-66
2023/06/28 11:06:11;;;;;;;3.30;1.10;;;;;;;20.52;48.57;101046.66;7402090;19;20070;-69
2023/06/28 11:08:43;;;;;;;2.88;0.80;;;;;;;20.59;48.15;101049.84;7401603;19;20030;-66
2023/06/28 11:11:23;;;;;;;2.77;1.17;;;;;;;20.61;48.26;101059.44;7401450;19;20081;-69
2023/06/28 11:13:51;;;;;;;3.67;1.30;;;;;;;20.61;48.17;101037.25;7398584;19;20445;-66
2023/06/28 11:16:22;;;;;;;4.57;1.50;;;;;;;20.66;47.45;101044.03;7397625;19;20086;-69
2023/06/28 11:18:51;;;;;;;3.40;1.23;;;;;;;20.76;46.91;101051.50;7401276;19;20521;-66
2023/06/28 11:21:24;;;;;;;8.27;1.30;;;;;;;20.83;46.95;101039.53;7400593;19;20384;-66
2023/06/28 11:23:57;;;;;;;4.00;1.40;;;;;;;20.92;46.69;101046.97;7399793;19;20077;-66
2023/06/28 11:26:36;;;;;;;;;;;;;;;21.05;45.25;101032.91;7402288;19;20018;-69
2023/06/28 11:29:18;;;;;;;3.45;1.27;;;;;;;21.12;45.47;101039.56;7398695;19;19999;-66
2023/06/28 11:31:50;;;;;;;3.60;1.50;;;;;;;21.13;46.47;101035.97;7398174;19;20018;-66
2023/06/28 11:34:19;;;;;;;4.13;1.17;;;;;;;21.10;44.40;101050.31;7397932;19;20018;-66